createdAt,value
2017-06-13T00:00:26.675Z,82.49
2017-06-13T00:01:27.250Z,82.68
2017-06-13T00:02:27.826Z,82.30
2017-06-13T00:03:28.400Z,82.40
2017-06-13T00:04:28.976Z,82.49
2017-06-13T00:05:29.551Z,82.20
2017-06-13T00:06:30.126Z,82.49
2017-06-13T00:07:30.700Z,82.49
2017-06-13T00:08:31.275Z,82.30
2017-06-13T00:09:31.850Z,82.49
2017-06-13T00:10:32.425Z,81.92
2017-06-13T00:11:33.012Z,82.49
2017-06-13T00:12:33.588Z,82.30
2017-06-13T00:13:34.174Z,81.92
2017-06-13T00:14:34.749Z,81.82
2017-06-13T00:15:35.324Z,82.49
2017-06-13T00:16:35.898Z,82.49
2017-06-13T00:17:36.471Z,82.01
2017-06-13T00:18:37.046Z,82.11
2017-06-13T00:19:37.621Z,82.11
2017-06-13T00:20:38.195Z,82.01
2017-06-13T00:21:38.771Z,82.30
2017-06-13T00:22:39.345Z,82.01
2017-06-13T00:23:39.921Z,81.82
2017-06-13T00:24:40.496Z,82.49
2017-06-13T00:25:41.070Z,82.97
2017-06-13T00:26:41.644Z,83.26
2017-06-13T00:27:42.220Z,82.87
2017-06-13T00:28:42.808Z,83.06
2017-06-13T00:29:43.381Z,83.16
2017-06-13T00:30:43.958Z,83.06
2017-06-13T00:31:44.532Z,83.26
2017-06-13T00:32:45.109Z,83.45
2017-06-13T00:33:45.683Z,83.54
2017-06-13T00:34:46.270Z,82.87
2017-06-13T00:35:46.847Z,83.36
2017-06-13T00:36:47.422Z,83.26
2017-06-13T00:37:47.999Z,83.45
2017-06-13T00:38:48.573Z,83.54
2017-06-13T00:39:49.150Z,83.45
2017-06-13T00:40:49.738Z,83.16
2017-06-13T00:41:50.313Z,83.64
2017-06-13T00:42:50.890Z,83.36
2017-06-13T00:43:51.464Z,83.83
2017-06-13T00:44:52.040Z,83.73
2017-06-13T00:45:52.616Z,83.64
2017-06-13T00:46:53.192Z,83.64
2017-06-13T00:47:53.766Z,83.45
2017-06-13T00:48:54.342Z,83.73
2017-06-13T00:49:54.917Z,83.93
2017-06-13T00:50:55.493Z,83.36
2017-06-13T00:51:56.068Z,84.12
2017-06-13T00:52:56.643Z,84.12
2017-06-13T00:53:57.218Z,84.88
2017-06-13T00:54:57.792Z,84.31
2017-06-13T00:55:58.366Z,84.55
2017-06-13T00:56:58.940Z,84.36
2017-06-13T00:57:59.515Z,84.41
2017-06-13T00:59:00.102Z,84.55
2017-06-13T01:00:00.679Z,84.31
2017-06-13T01:01:01.254Z,84.41
2017-06-13T01:02:01.840Z,84.69
2017-06-13T01:03:02.414Z,84.36
2017-06-13T01:04:02.989Z,84.59
2017-06-13T01:05:03.563Z,84.41
2017-06-13T01:06:04.139Z,84.22
2017-06-13T01:07:04.713Z,84.69
2017-06-13T01:08:05.288Z,84.69
2017-06-13T01:09:05.863Z,84.88
2017-06-13T01:10:06.439Z,84.31
2017-06-13T01:11:07.015Z,84.50
2017-06-13T01:12:07.602Z,84.41
2017-06-13T01:13:08.177Z,84.55
2017-06-13T01:14:08.753Z,84.22
2017-06-13T01:15:09.326Z,84.59
2017-06-13T01:16:09.904Z,84.41
2017-06-13T01:17:10.476Z,84.59
2017-06-13T01:18:11.049Z,84.31
2017-06-13T01:19:11.625Z,84.46
2017-06-13T01:20:12.198Z,85.13
2017-06-13T01:21:12.785Z,84.59
2017-06-13T01:22:13.366Z,84.65
2017-06-13T01:23:13.937Z,84.75
2017-06-13T01:24:14.513Z,85.17
2017-06-13T01:25:15.088Z,85.13
2017-06-13T01:26:15.662Z,85.17
2017-06-13T01:27:16.241Z,85.08
2017-06-13T01:28:16.813Z,85.13
2017-06-13T01:29:17.388Z,84.94
2017-06-13T01:30:17.962Z,85.22
2017-06-13T01:31:18.537Z,85.32
2017-06-13T01:32:19.117Z,85.51
2017-06-13T01:33:19.690Z,85.03
2017-06-13T01:34:20.262Z,85.32
2017-06-13T01:35:20.836Z,85.03
2017-06-13T01:36:21.410Z,85.13
2017-06-13T01:37:21.985Z,85.08
2017-06-13T01:38:22.560Z,85.22
2017-06-13T01:39:23.134Z,85.03
2017-06-13T01:40:23.709Z,85.41
2017-06-13T01:41:24.282Z,85.22
2017-06-13T01:42:24.857Z,85.41
2017-06-13T01:43:25.431Z,85.36
2017-06-13T01:44:26.004Z,85.36
2017-06-13T01:45:26.578Z,84.94
2017-06-13T01:46:27.152Z,85.32
2017-06-13T01:47:27.726Z,85.41
2017-06-13T01:48:28.302Z,85.80
2017-06-13T01:49:28.876Z,85.13
2017-06-13T01:50:29.450Z,85.80
2017-06-13T01:51:30.024Z,85.71
2017-06-13T01:52:30.599Z,85.71
2017-06-13T01:53:31.174Z,85.99
2017-06-13T01:54:31.748Z,85.99
2017-06-13T01:55:32.322Z,85.71
2017-06-13T01:56:32.897Z,85.51
2017-06-13T01:57:33.471Z,85.51
2017-06-13T01:58:34.046Z,85.80
2017-06-13T01:59:34.620Z,85.61
2017-06-13T02:00:35.195Z,85.71
2017-06-13T02:01:35.770Z,85.61
2017-06-13T02:02:36.356Z,85.80
2017-06-13T02:03:36.932Z,86.08
2017-06-13T02:04:37.507Z,85.13
2017-06-13T02:05:38.083Z,85.80
2017-06-13T02:06:38.658Z,85.32
2017-06-13T02:07:39.233Z,85.41
2017-06-13T02:08:39.807Z,85.41
2017-06-13T02:09:40.384Z,85.61
2017-06-13T02:10:40.957Z,85.89
2017-06-13T02:11:41.533Z,85.51
2017-06-13T02:12:42.107Z,85.80
2017-06-13T02:13:42.681Z,86.08
2017-06-13T02:14:43.255Z,86.57
2017-06-13T02:15:43.829Z,85.99
2017-06-13T02:16:44.407Z,86.18
2017-06-13T02:17:44.978Z,86.18
2017-06-13T02:18:45.553Z,86.37
2017-06-13T02:19:46.140Z,86.37
2017-06-13T02:20:46.714Z,86.18
2017-06-13T02:21:47.290Z,86.47
2017-06-13T02:22:47.876Z,86.66
2017-06-13T02:23:48.451Z,86.76
2017-06-13T02:24:49.027Z,87.23
2017-06-13T02:25:49.604Z,87.23
2017-06-13T02:26:50.180Z,87.08
2017-06-13T02:27:50.765Z,87.23
2017-06-13T02:28:51.339Z,87.52
2017-06-13T02:29:51.913Z,87.23
2017-06-13T02:30:52.488Z,87.14
2017-06-13T02:31:53.062Z,87.52
2017-06-13T02:32:53.641Z,87.04
2017-06-13T02:33:54.211Z,86.94
2017-06-13T02:34:54.787Z,87.71
2017-06-13T02:35:55.363Z,87.33
2017-06-13T02:36:55.936Z,87.04
2017-06-13T02:37:56.510Z,87.71
2017-06-13T02:38:57.086Z,87.62
2017-06-13T02:39:57.658Z,87.90
2017-06-13T02:40:58.232Z,87.71
2017-06-13T02:41:58.806Z,87.52
2017-06-13T02:42:59.394Z,87.52
2017-06-13T02:43:59.968Z,87.71
2017-06-13T02:45:00.545Z,87.81
2017-06-13T02:46:01.133Z,88.09
2017-06-13T02:47:01.708Z,87.90
2017-06-13T02:48:02.285Z,88.57
2017-06-13T02:49:02.859Z,88.48
2017-06-13T02:50:03.436Z,88.57
2017-06-13T02:51:04.010Z,88.29
2017-06-13T02:52:04.586Z,88.38
2017-06-13T02:53:05.161Z,88.38
2017-06-13T02:54:05.736Z,88.38
2017-06-13T02:55:06.311Z,89.43
2017-06-13T02:56:06.885Z,88.48
2017-06-13T02:57:07.461Z,88.67
2017-06-13T02:58:08.034Z,88.48
2017-06-13T02:59:08.610Z,88.76
2017-06-13T03:00:09.184Z,88.67
2017-06-13T03:01:09.758Z,88.67
2017-06-13T03:02:10.333Z,88.76
2017-06-13T03:03:10.919Z,88.19
2017-06-13T03:04:11.494Z,89.05
2017-06-13T03:05:12.074Z,88.95
2017-06-13T03:06:12.645Z,89.05
2017-06-13T03:07:13.222Z,89.34
2017-06-13T03:08:13.795Z,88.95
2017-06-13T03:09:14.371Z,89.53
2017-06-13T03:10:14.944Z,89.53
2017-06-13T03:11:15.520Z,89.62
2017-06-13T03:12:16.095Z,89.72
2017-06-13T03:13:16.671Z,89.53
2017-06-13T03:14:17.246Z,89.72
2017-06-13T03:15:17.821Z,90.01
2017-06-13T03:16:18.408Z,90.30
2017-06-13T03:17:18.984Z,90.39
2017-06-13T03:18:19.560Z,90.20
2017-06-13T03:19:20.136Z,90.01
2017-06-13T03:20:20.713Z,89.24
2017-06-13T03:21:21.289Z,89.62
2017-06-13T03:22:21.864Z,90.30
2017-06-13T03:23:22.439Z,90.30
2017-06-13T03:24:23.015Z,90.30
2017-06-13T03:25:23.591Z,89.91
2017-06-13T03:26:24.168Z,90.30
2017-06-13T03:27:24.745Z,90.30
2017-06-13T03:28:25.345Z,90.10
2017-06-13T03:29:25.920Z,89.91
2017-06-13T03:30:26.496Z,89.81
2017-06-13T03:31:27.072Z,90.67
2017-06-13T03:32:27.648Z,90.48
2017-06-13T03:33:28.223Z,90.58
2017-06-13T03:34:28.799Z,90.58
2017-06-13T03:35:29.374Z,91.16
2017-06-13T03:36:29.950Z,91.06
2017-06-13T03:37:30.527Z,91.16
2017-06-13T03:38:31.104Z,90.77
2017-06-13T03:39:31.682Z,90.87
2017-06-13T03:40:32.257Z,90.96
2017-06-13T03:41:32.834Z,91.06
2017-06-13T03:42:33.409Z,90.96
2017-06-13T03:43:33.986Z,91.73
2017-06-13T03:44:34.561Z,91.53
2017-06-13T03:45:35.137Z,91.35
2017-06-13T03:46:35.712Z,91.53
2017-06-13T03:47:36.288Z,91.44
2017-06-13T03:48:36.866Z,91.63
2017-06-13T03:49:37.454Z,92.30
2017-06-13T03:50:38.029Z,92.30
2017-06-13T03:51:38.604Z,92.49
2017-06-13T03:52:39.179Z,92.30
2017-06-13T03:53:39.754Z,92.78
2017-06-13T03:54:40.331Z,93.07
2017-06-13T03:55:40.910Z,92.69
2017-06-13T03:56:41.488Z,92.78
2017-06-13T03:57:42.066Z,92.78
2017-06-13T03:58:42.643Z,93.07
2017-06-13T03:59:43.218Z,92.88
2017-06-13T04:00:43.794Z,92.88
2017-06-13T04:01:44.371Z,92.78
2017-06-13T04:02:44.949Z,93.07
2017-06-13T04:03:45.527Z,92.97
2017-06-13T04:04:46.116Z,93.45
2017-06-13T04:05:46.695Z,93.07
2017-06-13T04:06:47.271Z,93.55
2017-06-13T04:07:47.850Z,92.88
2017-06-13T04:08:48.426Z,93.45
2017-06-13T04:09:49.002Z,93.16
2017-06-13T04:10:49.578Z,93.45
2017-06-13T04:11:50.155Z,93.55
2017-06-13T04:12:50.732Z,93.45
2017-06-13T04:13:51.310Z,93.64
2017-06-13T04:14:51.888Z,93.64
2017-06-13T04:15:52.465Z,93.93
2017-06-13T04:16:53.043Z,93.64
2017-06-13T04:17:53.620Z,94.12
2017-06-13T04:18:54.197Z,94.21
2017-06-13T04:19:54.775Z,94.12
2017-06-13T04:20:55.353Z,94.12
2017-06-13T04:21:55.942Z,94.31
2017-06-13T04:22:56.521Z,94.21
2017-06-13T04:23:57.100Z,94.89
2017-06-13T04:24:57.679Z,94.41
2017-06-13T04:25:58.257Z,94.41
2017-06-13T04:26:58.833Z,94.79
2017-06-13T04:27:59.412Z,95.27
2017-06-13T04:28:59.990Z,94.31
2017-06-13T04:30:00.568Z,95.07
2017-06-13T04:31:01.146Z,95.17
2017-06-13T04:32:01.721Z,94.60
2017-06-13T04:33:02.298Z,94.98
2017-06-13T04:34:02.876Z,94.79
2017-06-13T04:35:03.455Z,95.07
2017-06-13T04:36:04.034Z,95.17
2017-06-13T04:37:04.613Z,94.98
2017-06-13T04:38:05.191Z,94.89
2017-06-13T04:39:05.781Z,95.07
2017-06-13T04:40:06.359Z,95.07
2017-06-13T04:41:06.937Z,95.27
2017-06-13T04:42:07.515Z,95.84
2017-06-13T04:43:08.094Z,95.56
2017-06-13T04:44:08.672Z,95.36
2017-06-13T04:45:09.250Z,94.70
2017-06-13T04:46:09.841Z,94.79
2017-06-13T04:47:10.419Z,95.07
2017-06-13T04:48:10.997Z,95.27
2017-06-13T04:49:11.574Z,95.07
2017-06-13T04:50:12.153Z,94.98
2017-06-13T04:51:12.733Z,94.79
2017-06-13T04:52:13.310Z,94.79
2017-06-13T04:53:13.888Z,94.26
2017-06-13T04:54:14.466Z,94.93
2017-06-13T04:55:15.044Z,94.79
2017-06-13T04:56:15.623Z,94.79
2017-06-13T04:57:16.201Z,95.22
2017-06-13T04:58:16.781Z,94.50
2017-06-13T04:59:17.372Z,94.55
2017-06-13T05:00:17.949Z,95.12
2017-06-13T05:01:18.526Z,94.74
2017-06-13T05:02:19.104Z,94.36
2017-06-13T05:03:19.683Z,94.36
2017-06-13T05:04:20.263Z,94.84
2017-06-13T05:05:20.839Z,94.55
2017-06-13T05:06:21.419Z,94.65
2017-06-13T05:07:21.996Z,94.26
2017-06-13T05:08:22.574Z,94.07
2017-06-13T05:09:23.154Z,94.84
2017-06-13T05:10:23.731Z,94.36
2017-06-13T05:11:24.311Z,94.17
2017-06-13T05:12:24.888Z,93.59
2017-06-13T05:13:25.466Z,93.69
2017-06-13T05:14:26.056Z,93.50
2017-06-13T05:15:26.635Z,94.26
2017-06-13T05:16:27.225Z,93.30
2017-06-13T05:17:27.803Z,94.07
2017-06-13T05:18:28.381Z,93.59
2017-06-13T05:19:28.971Z,93.50
2017-06-13T05:20:29.548Z,93.30
2017-06-13T05:21:30.126Z,92.44
2017-06-13T05:22:30.704Z,93.02
2017-06-13T05:23:31.284Z,93.02
2017-06-13T05:24:31.863Z,92.54
2017-06-13T05:25:32.452Z,92.44
2017-06-13T05:26:33.032Z,92.58
2017-06-13T05:27:33.610Z,92.78
2017-06-13T05:28:34.189Z,92.58
2017-06-13T05:29:34.767Z,91.11
2017-06-13T05:30:35.346Z,91.53
2017-06-13T05:31:35.925Z,90.96
2017-06-13T05:32:36.503Z,91.25
2017-06-13T05:33:37.081Z,91.25
2017-06-13T05:34:37.658Z,91.15
2017-06-13T05:35:38.237Z,91.05
2017-06-13T05:36:38.818Z,90.96
2017-06-13T05:37:39.395Z,91.25
2017-06-13T05:38:39.974Z,90.67
2017-06-13T05:39:40.552Z,90.48
2017-06-13T05:40:41.142Z,90.48
2017-06-13T05:41:41.721Z,91.34
2017-06-13T05:42:42.298Z,90.86
2017-06-13T05:43:42.879Z,90.48
2017-06-13T05:44:43.457Z,90.29
2017-06-13T05:45:44.036Z,90.48
2017-06-13T05:46:44.615Z,90.29
2017-06-13T05:47:45.192Z,90.62
2017-06-13T05:48:45.771Z,89.52
2017-06-13T05:49:46.351Z,90.05
2017-06-13T05:50:46.928Z,90.05
2017-06-13T05:51:47.507Z,89.37
2017-06-13T05:52:48.085Z,89.18
2017-06-13T05:53:48.662Z,89.28
2017-06-13T05:54:49.242Z,90.23
2017-06-13T05:55:49.822Z,89.76
2017-06-13T05:56:50.402Z,89.18
2017-06-13T05:57:50.980Z,89.37
2017-06-13T05:58:51.558Z,87.51
2017-06-13T05:59:52.137Z,88.13
2017-06-13T06:00:52.717Z,87.84
2017-06-13T06:01:53.298Z,88.13
2017-06-13T06:02:53.876Z,88.23
2017-06-13T06:03:54.454Z,88.03
2017-06-13T06:04:55.034Z,87.94
2017-06-13T06:05:55.613Z,86.88
2017-06-13T06:06:56.194Z,86.41
2017-06-13T06:07:56.771Z,85.74
2017-06-13T06:08:57.349Z,86.02
2017-06-13T06:09:57.929Z,86.02
2017-06-13T06:10:58.509Z,85.97
2017-06-13T06:11:59.089Z,85.54
2017-06-13T06:12:59.668Z,85.54
2017-06-13T06:14:00.258Z,85.54
2017-06-13T06:15:00.837Z,84.25
2017-06-13T06:16:01.415Z,83.00
2017-06-13T06:17:01.994Z,83.29
2017-06-13T06:18:02.574Z,84.15
2017-06-13T06:19:03.153Z,84.15
2017-06-13T06:20:03.733Z,84.72
2017-06-13T06:21:04.323Z,83.95
2017-06-13T06:22:04.901Z,81.37
2017-06-13T06:23:05.481Z,81.08
2017-06-13T06:24:06.059Z,81.08
2017-06-13T06:25:06.638Z,81.56
2017-06-13T06:26:07.219Z,82.52
2017-06-13T06:27:07.810Z,82.04
2017-06-13T06:28:08.387Z,81.37
2017-06-13T06:29:08.968Z,80.74
2017-06-13T06:30:09.547Z,80.99
2017-06-13T06:31:10.125Z,80.60
2017-06-13T06:32:10.703Z,79.36
2017-06-13T06:33:11.283Z,79.74
2017-06-13T06:34:11.863Z,79.59
2017-06-13T06:35:12.442Z,80.16
2017-06-13T06:36:13.021Z,80.89
2017-06-13T06:37:13.611Z,80.70
2017-06-13T06:38:14.190Z,81.95
2017-06-13T06:39:14.768Z,80.70
2017-06-13T06:40:15.347Z,80.89
2017-06-13T06:41:15.938Z,79.45
2017-06-13T06:42:16.516Z,79.16
2017-06-13T06:43:17.108Z,77.63
2017-06-13T06:44:17.687Z,77.86
2017-06-13T06:45:18.265Z,78.34
2017-06-13T06:46:18.844Z,77.95
2017-06-13T06:47:19.423Z,78.15
2017-06-13T06:48:20.004Z,77.58
2017-06-13T06:49:20.582Z,77.29
2017-06-13T06:50:21.162Z,76.42
2017-06-13T06:51:21.740Z,76.14
2017-06-13T06:52:22.331Z,77.00
2017-06-13T06:53:22.921Z,78.44
2017-06-13T06:54:23.506Z,76.71
2017-06-13T06:55:24.081Z,76.23
2017-06-13T06:56:24.660Z,76.39
2017-06-13T06:57:25.251Z,76.29
2017-06-13T06:58:25.829Z,76.62
2017-06-13T06:59:26.408Z,76.32
2017-06-13T07:00:26.989Z,76.04
2017-06-13T07:01:27.569Z,75.75
2017-06-13T07:02:28.150Z,76.14
2017-06-13T07:03:28.728Z,76.23
2017-06-13T07:04:29.307Z,74.79
2017-06-13T07:05:29.898Z,74.79
2017-06-13T07:06:30.477Z,75.27
2017-06-13T07:07:31.055Z,75.18
2017-06-13T07:08:31.636Z,74.79
2017-06-13T07:09:32.215Z,75.27
2017-06-13T07:10:32.795Z,75.79
2017-06-13T07:11:33.375Z,75.70
2017-06-13T07:12:33.953Z,76.37
2017-06-13T07:13:34.536Z,76.37
2017-06-13T07:14:35.126Z,76.42
2017-06-13T07:15:35.706Z,75.89
2017-06-13T07:16:36.287Z,73.93
2017-06-13T07:17:36.866Z,73.87
2017-06-13T07:18:37.448Z,73.49
2017-06-13T07:19:38.025Z,74.01
2017-06-13T07:20:38.605Z,72.85
2017-06-13T07:21:39.185Z,71.98
2017-06-13T07:22:39.764Z,72.75
2017-06-13T07:23:40.345Z,72.56
2017-06-13T07:24:40.923Z,73.24
2017-06-13T07:25:41.504Z,72.28
2017-06-13T07:26:42.082Z,70.51
2017-06-13T07:27:42.662Z,70.23
2017-06-13T07:28:43.243Z,69.93
2017-06-13T07:29:43.822Z,70.90
2017-06-13T07:30:44.402Z,71.76
2017-06-13T07:31:44.994Z,70.70
2017-06-13T07:32:45.572Z,70.61
2017-06-13T07:33:46.151Z,70.70
2017-06-13T07:34:46.742Z,70.51
2017-06-13T07:35:47.312Z,70.80
2017-06-13T07:36:47.893Z,70.61
2017-06-13T07:37:48.472Z,71.25
2017-06-13T07:38:49.051Z,71.19
2017-06-13T07:39:49.643Z,70.61
2017-06-13T07:40:50.235Z,70.32
2017-06-13T07:41:50.814Z,70.64
2017-06-13T07:42:51.394Z,69.59
2017-06-13T07:43:51.974Z,68.53
2017-06-13T07:44:52.555Z,67.86
2017-06-13T07:45:53.138Z,66.74
2017-06-13T07:46:53.720Z,66.84
2017-06-13T07:47:54.311Z,68.05
2017-06-13T07:48:54.892Z,68.05
2017-06-13T07:49:55.470Z,68.59
2017-06-13T07:50:56.049Z,68.34
2017-06-13T07:51:56.640Z,68.82
2017-06-13T07:52:57.219Z,69.84
2017-06-13T07:53:57.798Z,69.68
2017-06-13T07:54:58.379Z,69.40
2017-06-13T07:55:58.960Z,68.79
2017-06-13T07:56:59.541Z,68.73
2017-06-13T07:58:00.119Z,68.91
2017-06-13T07:59:00.699Z,68.53
2017-06-13T08:00:01.282Z,68.50
2017-06-13T08:01:01.861Z,68.98
2017-06-13T08:02:02.441Z,69.07
2017-06-13T08:03:03.021Z,69.84
2017-06-13T08:04:03.601Z,68.69
2017-06-13T08:05:04.193Z,68.98
2017-06-13T08:06:04.772Z,68.50
2017-06-13T08:07:05.353Z,69.01
2017-06-13T08:08:05.944Z,68.73
2017-06-13T08:09:06.523Z,68.15
2017-06-13T08:10:07.104Z,68.34
2017-06-13T08:11:07.685Z,67.54
2017-06-13T08:12:08.264Z,67.83
2017-06-13T08:13:08.856Z,68.02
2017-06-13T08:14:09.437Z,68.21
2017-06-13T08:15:10.017Z,68.12
2017-06-13T08:16:10.595Z,68.21
2017-06-13T08:17:11.174Z,68.12
2017-06-13T08:18:11.754Z,67.96
2017-06-13T08:19:12.335Z,68.12
2017-06-13T08:20:12.916Z,66.77
2017-06-13T08:21:13.497Z,67.29
2017-06-13T08:22:14.077Z,66.84
2017-06-13T08:23:14.659Z,66.07
2017-06-13T08:24:15.239Z,65.97
2017-06-13T08:25:15.818Z,65.36
2017-06-13T08:26:16.398Z,65.94
2017-06-13T08:27:16.977Z,66.23
2017-06-13T08:28:17.569Z,65.27
2017-06-13T08:29:18.140Z,64.98
2017-06-13T08:30:18.719Z,64.59
2017-06-13T08:31:19.298Z,64.31
2017-06-13T08:32:19.878Z,65.36
2017-06-13T08:33:20.458Z,65.88
2017-06-13T08:34:21.040Z,65.65
2017-06-13T08:35:21.618Z,65.56
2017-06-13T08:36:22.198Z,66.03
2017-06-13T08:37:22.778Z,66.42
2017-06-13T08:38:23.369Z,66.86
2017-06-13T08:39:23.950Z,67.38
2017-06-13T08:40:24.529Z,67.16
2017-06-13T08:41:25.109Z,66.23
2017-06-13T08:42:25.693Z,66.19
2017-06-13T08:43:26.270Z,66.39
2017-06-13T08:44:26.851Z,66.80
2017-06-13T08:45:27.435Z,66.58
2017-06-13T08:46:28.010Z,66.86
2017-06-13T08:47:28.592Z,66.00
2017-06-13T08:48:29.171Z,65.52
2017-06-13T08:49:29.752Z,66.29
2017-06-13T08:50:30.331Z,65.94
2017-06-13T08:51:30.910Z,66.00
2017-06-13T08:52:31.492Z,66.61
2017-06-13T08:53:32.071Z,65.65
2017-06-13T08:54:32.653Z,66.03
2017-06-13T08:55:33.232Z,66.03
2017-06-13T08:56:33.811Z,66.03
2017-06-13T08:57:34.393Z,66.71
2017-06-13T08:58:34.973Z,66.42
2017-06-13T08:59:35.555Z,65.94
2017-06-13T09:00:36.134Z,66.61
2017-06-13T09:01:36.713Z,67.00
2017-06-13T09:02:37.295Z,66.84
2017-06-13T09:03:37.874Z,66.36
2017-06-13T09:04:38.458Z,66.36
2017-06-13T09:05:39.038Z,66.26
2017-06-13T09:06:39.617Z,66.33
2017-06-13T09:07:40.198Z,66.36
2017-06-13T09:08:40.790Z,65.88
2017-06-13T09:09:41.371Z,65.20
2017-06-13T09:10:41.952Z,66.16
2017-06-13T09:11:42.533Z,66.55
2017-06-13T09:12:43.123Z,65.97
2017-06-13T09:13:43.705Z,65.11
2017-06-13T09:14:44.286Z,65.30
2017-06-13T09:15:44.864Z,65.56
2017-06-13T09:16:45.447Z,65.08
2017-06-13T09:17:46.028Z,65.20
2017-06-13T09:18:46.611Z,64.63
2017-06-13T09:19:47.191Z,64.72
2017-06-13T09:20:47.784Z,64.92
2017-06-13T09:21:48.365Z,64.34
2017-06-13T09:22:48.949Z,65.11
2017-06-13T09:23:49.530Z,65.11
2017-06-13T09:24:50.111Z,65.23
2017-06-13T09:25:50.692Z,64.28
2017-06-13T09:26:51.273Z,64.56
2017-06-13T09:27:51.865Z,64.76
2017-06-13T09:28:52.447Z,65.14
2017-06-13T09:29:53.028Z,65.14
2017-06-13T09:30:53.612Z,65.14
2017-06-13T09:31:54.193Z,65.43
2017-06-13T09:32:54.772Z,65.88
2017-06-13T09:33:55.354Z,65.59
2017-06-13T09:34:55.944Z,65.30
2017-06-13T09:35:56.525Z,64.63
2017-06-13T09:36:57.107Z,64.85
2017-06-13T09:37:57.687Z,65.62
2017-06-13T09:38:58.267Z,66.58
2017-06-13T09:39:58.847Z,65.91
2017-06-13T09:40:59.427Z,65.72
2017-06-13T09:42:00.009Z,66.10
2017-06-13T09:43:00.600Z,64.92
2017-06-13T09:44:01.182Z,65.11
2017-06-13T09:45:01.764Z,65.01
2017-06-13T09:46:02.343Z,65.11
2017-06-13T09:47:02.923Z,65.40
2017-06-13T09:48:03.504Z,65.11
2017-06-13T09:49:04.085Z,65.11
2017-06-13T09:50:04.668Z,65.20
2017-06-13T09:51:05.247Z,65.11
2017-06-13T09:52:05.827Z,65.59
2017-06-13T09:53:06.407Z,64.76
2017-06-13T09:54:06.987Z,65.11
2017-06-13T09:55:07.569Z,65.27
2017-06-13T09:56:08.148Z,66.42
2017-06-13T09:57:08.732Z,64.82
2017-06-13T09:58:09.312Z,64.92
2017-06-13T09:59:09.893Z,64.09
2017-06-13T10:00:10.476Z,64.37
2017-06-13T10:01:11.069Z,63.32
2017-06-13T10:02:11.652Z,62.74
2017-06-13T10:03:12.233Z,62.77
2017-06-13T10:04:12.815Z,61.23
2017-06-13T10:05:13.408Z,62.19
2017-06-13T10:06:13.989Z,62.00
2017-06-13T10:07:14.570Z,61.52
2017-06-13T10:08:15.152Z,62.10
2017-06-13T10:09:15.734Z,62.10
2017-06-13T10:10:16.314Z,63.25
2017-06-13T10:11:16.895Z,64.50
2017-06-13T10:12:17.478Z,62.87
2017-06-13T10:13:18.057Z,62.87
2017-06-13T10:14:18.641Z,61.81
2017-06-13T10:15:19.223Z,60.27
2017-06-13T10:16:19.804Z,60.85
2017-06-13T10:17:20.386Z,61.04
2017-06-13T10:18:20.968Z,61.04
2017-06-13T10:19:21.550Z,60.88
2017-06-13T10:20:22.143Z,60.85
2017-06-13T10:21:22.723Z,61.23
2017-06-13T10:22:23.304Z,61.33
2017-06-13T10:23:23.886Z,62.38
2017-06-13T10:24:24.481Z,62.00
2017-06-13T10:25:25.062Z,60.75
2017-06-13T10:26:25.645Z,60.94
2017-06-13T10:27:26.227Z,61.81
2017-06-13T10:28:26.808Z,61.71
2017-06-13T10:29:27.391Z,61.43
2017-06-13T10:30:27.974Z,62.29
2017-06-13T10:31:28.556Z,62.38
2017-06-13T10:32:29.136Z,62.19
2017-06-13T10:33:29.718Z,62.93
2017-06-13T10:34:30.309Z,63.22
2017-06-13T10:35:30.890Z,63.57
2017-06-13T10:36:31.471Z,64.18
2017-06-13T10:37:32.053Z,63.89
2017-06-13T10:38:32.633Z,63.70
2017-06-13T10:39:33.214Z,64.28
2017-06-13T10:40:33.793Z,63.79
2017-06-13T10:41:34.374Z,64.37
2017-06-13T10:42:34.966Z,62.61
2017-06-13T10:43:35.546Z,63.09
2017-06-13T10:44:36.127Z,62.93
2017-06-13T10:45:36.709Z,62.71
2017-06-13T10:46:37.289Z,63.09
2017-06-13T10:47:37.870Z,63.09
2017-06-13T10:48:38.450Z,63.19
2017-06-13T10:49:39.031Z,63.28
2017-06-13T10:50:39.612Z,63.76
2017-06-13T10:51:40.193Z,63.09
2017-06-13T10:52:40.775Z,63.12
2017-06-13T10:53:41.357Z,63.32
2017-06-13T10:54:41.938Z,62.99
2017-06-13T10:55:42.520Z,63.70
2017-06-13T10:56:43.102Z,64.28
2017-06-13T10:57:43.694Z,63.22
2017-06-13T10:58:44.277Z,64.09
2017-06-13T10:59:44.858Z,64.22
2017-06-13T11:00:45.440Z,63.64
2017-06-13T11:01:46.025Z,63.06
2017-06-13T11:02:46.604Z,63.73
2017-06-13T11:03:47.185Z,63.15
2017-06-13T11:04:47.766Z,63.25
2017-06-13T11:05:48.349Z,62.90
2017-06-13T11:06:48.932Z,62.68
2017-06-13T11:07:49.513Z,62.13
2017-06-13T11:08:50.094Z,61.71
2017-06-13T11:09:50.676Z,62.19
2017-06-13T11:10:51.259Z,60.39
2017-06-13T11:11:51.841Z,60.78
2017-06-13T11:12:52.422Z,62.61
2017-06-13T11:13:53.005Z,60.59
2017-06-13T11:14:53.588Z,61.04
2017-06-13T11:15:54.169Z,61.46
2017-06-13T11:16:54.749Z,60.01
2017-06-13T11:17:55.330Z,60.11
2017-06-13T11:18:55.919Z,59.17
2017-06-13T11:19:56.493Z,59.53
2017-06-13T11:20:57.074Z,60.30
2017-06-13T11:21:57.657Z,60.59
2017-06-13T11:22:58.236Z,61.36
2017-06-13T11:23:58.816Z,62.32
2017-06-13T11:24:59.409Z,61.55
2017-06-13T11:25:59.989Z,61.43
2017-06-13T11:27:00.570Z,61.52
2017-06-13T11:28:01.152Z,61.61
2017-06-13T11:29:01.733Z,62.29
2017-06-13T11:30:02.325Z,62.38
2017-06-13T11:31:02.908Z,61.81
2017-06-13T11:32:03.487Z,61.43
2017-06-13T11:33:04.068Z,61.43
2017-06-13T11:34:04.671Z,61.91
2017-06-13T11:35:05.254Z,61.52
2017-06-13T11:36:05.837Z,61.61
2017-06-13T11:37:06.428Z,61.46
2017-06-13T11:38:07.014Z,61.07
2017-06-13T11:39:07.593Z,60.30
2017-06-13T11:40:08.171Z,60.69
2017-06-13T11:41:08.751Z,60.04
2017-06-13T11:42:09.330Z,60.17
2017-06-13T11:43:09.913Z,58.79
2017-06-13T11:44:10.493Z,60.88
2017-06-13T11:45:11.075Z,60.11
2017-06-13T11:46:11.655Z,60.39
2017-06-13T11:47:12.235Z,59.92
2017-06-13T11:48:12.818Z,60.39
2017-06-13T11:49:13.398Z,60.69
2017-06-13T11:50:13.981Z,59.53
2017-06-13T11:51:14.561Z,59.24
2017-06-13T11:52:15.141Z,59.92
2017-06-13T11:53:15.723Z,59.53
2017-06-13T11:54:16.303Z,60.66
2017-06-13T11:55:16.886Z,61.33
2017-06-13T11:56:17.479Z,60.78
2017-06-13T11:57:18.060Z,60.17
2017-06-13T11:58:18.666Z,60.75
2017-06-13T11:59:19.246Z,60.56
2017-06-13T12:00:19.826Z,61.26
2017-06-13T12:01:20.408Z,61.36
2017-06-13T12:02:20.990Z,61.46
2017-06-13T12:03:21.572Z,61.46
2017-06-13T12:04:22.152Z,60.37
2017-06-13T12:05:22.732Z,61.61
2017-06-13T12:06:23.315Z,62.32
2017-06-13T12:07:23.896Z,63.06
2017-06-13T12:08:24.477Z,62.68
2017-06-13T12:09:25.069Z,63.89
2017-06-13T12:10:25.651Z,64.28
2017-06-13T12:11:26.232Z,63.70
2017-06-13T12:12:26.825Z,63.89
2017-06-13T12:13:27.407Z,63.70
2017-06-13T12:14:28.034Z,64.50
2017-06-13T12:15:28.615Z,63.60
2017-06-13T12:16:29.198Z,63.89
2017-06-13T12:17:29.778Z,63.89
2017-06-13T12:18:30.358Z,64.09
2017-06-13T12:19:30.939Z,63.70
2017-06-13T12:20:31.531Z,64.47
2017-06-13T12:21:32.111Z,64.18
2017-06-13T12:22:32.692Z,63.83
2017-06-13T12:23:33.273Z,64.40
2017-06-13T12:24:33.855Z,63.06
2017-06-13T12:25:34.465Z,63.15
2017-06-13T12:26:35.047Z,63.25
2017-06-13T12:27:35.628Z,63.15
2017-06-13T12:28:36.224Z,62.38
2017-06-13T12:29:36.804Z,63.15
2017-06-13T12:30:37.383Z,63.64
2017-06-13T12:31:37.963Z,63.15
2017-06-13T12:32:38.543Z,63.73
2017-06-13T12:33:39.123Z,63.73
2017-06-13T12:34:39.706Z,63.51
2017-06-13T12:35:40.287Z,64.12
2017-06-13T12:36:40.880Z,63.73
2017-06-13T12:37:41.462Z,62.96
2017-06-13T12:38:42.042Z,63.35
2017-06-13T12:39:42.622Z,63.15
2017-06-13T12:40:43.202Z,63.92
2017-06-13T12:41:43.783Z,64.40
2017-06-13T12:42:44.365Z,64.69
2017-06-13T12:43:44.945Z,64.09
2017-06-13T12:44:45.526Z,64.47
2017-06-13T12:45:46.110Z,64.31
2017-06-13T12:46:46.686Z,64.40
2017-06-13T12:47:47.268Z,63.70
2017-06-13T12:48:47.849Z,63.02
2017-06-13T12:49:48.431Z,63.15
2017-06-13T12:50:49.024Z,61.40
2017-06-13T12:51:49.603Z,62.26
2017-06-13T12:52:50.186Z,62.00
2017-06-13T12:53:50.766Z,62.19
2017-06-13T12:54:51.346Z,62.58
2017-06-13T12:55:51.928Z,62.48
2017-06-13T12:56:52.511Z,62.77
2017-06-13T12:57:53.091Z,62.68
2017-06-13T12:58:53.672Z,63.28
2017-06-13T12:59:54.252Z,62.58